LEXJ/SDR METAR and TAF weather

Enter ICAO airport designator
Station Type Date Time Source
LEXJ METAR 2019/02/20 07:00 UTC NOAA

LEXJ 200700Z 17001KT 4000 BR MIFG NSC 04/04 Q1021


Station Type Date Time Source
LEXJ Decoded METAR 2019/02/20 07:00 UTC NOAA

Santander / Parayas, Spain (LEXJ) 43-26N 003-49W 9M
Feb 20, 2019 - 02:00 AM EST / 2019.02.20 0700 UTC
Wind: from the S (170 degrees) at 1 MPH (1 KT):0
Visibility: 2 mile(s):0
Weather: mist; shallow fog
Temperature: 39 F (4 C)
Dew Point: 39 F (4 C)
Relative Humidity: 100%
Pressure (altimeter): 30.15 in. Hg (1021 hPa)
ob: LEXJ 200700Z 17001KT 4000 BR MIFG NSC 04/04 Q1021
cycle: 7

Station Type Date Time Source
LEXJ TAF 2019/02/20 03:30 UTC NOAA

TAF LEXJ 200200Z 2003/2103 17004KT 9999 FEW030 TX15/2014Z TN05/2004Z PROB40
TEMPO 2003/2008 3000 BR
TEMPO 2012/2017 07010KT


Example: see airport list